Avno, Denmark

2:24 AM CEST on September 23, 2014 (GMT +0200)
Avno | Change Station
CLOSE
Current Station
Airport
Location: Avno,
Elevation: 13 ft
Nearby Weather Stations

Elev 13 ft 55.08 °N, 11.78 °E | Updated 4 minutes ago

Mostly Cloudy
Mostly Cloudy
54 °F
Feels Like 54 °F
N
2
Wind Variable Wind from Variable

Today
High -- | Low -- °F
--% Chance of Precip.
Yesterday
High -- | Low -- °F
Precip. -- in
6:59 AM 7:09 PM
Waning Crescent, 1% visible
Pressure 30.04 in
Visibility 6.2 miles
Clouds Few 16000 ft
Mostly Cloudy 19000 ft
Dew Point 37 °F
Humidity 54%
Rainfall 0.00 in
Snow Depth Not available.
UV 0 out of 12
Pollen Not available.
Air Quality Not available.
Flu Activity Not available.
METAR EKAV 230020Z AUTO VRB02KT 9999NDV FEW160/// BKN190/// 12/03 Q1017

More Conditions Fewer Conditions

Pressure 30.04 in
Visibility 6.2 miles
Clouds Few 16000 ft
Mostly Cloudy 19000 ft
Dew Point 37 °F
Humidity 54%
Rainfall 0.00 in
Snow Depth Not available.
UV 0 out of 12
Pollen Not available.
Air Quality Not available.
Flu Activity Not available.
METAR EKAV 230020Z AUTO VRB02KT 9999NDV FEW160/// BKN190/// 12/03 Q1017

More Conditions Fewer Conditions

10-Day Weather Forecast

Almanac

Astronomy

Sep. 23, 2014 Rise Set
Actual Time 6:59 AM CEST 7:09 PM CEST
Civil Twilight 6:23 AM CEST 7:45 PM CEST
Nautical Twilight 5:40 AM CEST 8:28 PM CEST
Astronomical Twilight 4:54 AM CEST 9:14 PM CEST
Moon 6:04 AM CEST 6:39 PM CEST
Length of Visible Light 13h 22m
Length of Day
12h 09m
Tomorrow will be 4m 27s shorter.
Waning Crescent, 1% of the Moon is Illuminated
Sep 22
Waning Crescent
Sep 24
New
Oct 1
First Quarter
Oct 8
Full
Oct 15
Last Quarter

Yesterday's Extremes

Country Highs Country Lows

Community

WunderPhotos

Upload Photos

1,755,574 photos uploaded!

Nearby

Snow Depth

Not available.

Earthquake Activity

City Distance Mag. Time & Date
No recent earthquake activity has been reported nearby.
Minimum magnitude displayed is 2.5.

Coastal Water Temperatures

Place Temperature
No Stations Reporting

Nearby Weather Stations